createdAt,value
2023-05-03T00:00:10.243Z,23.70
2023-05-03T00:02:39.999Z,23.70
2023-05-03T00:05:09.742Z,23.70
2023-05-03T00:07:40.137Z,23.70
2023-05-03T00:10:09.256Z,23.70
2023-05-03T00:12:38.788Z,23.70
2023-05-03T00:15:07.828Z,23.70
2023-05-03T00:17:35.876Z,23.70
2023-05-03T00:20:05.194Z,23.70
2023-05-03T00:22:33.275Z,23.70
2023-05-03T00:25:02.625Z,23.70
2023-05-03T00:27:30.300Z,23.70
2023-05-03T00:29:58.071Z,23.70
2023-05-03T00:32:26.049Z,23.70
2023-05-03T00:34:54.791Z,23.70
2023-05-03T00:37:23.077Z,23.70
2023-05-03T00:39:51.038Z,23.70
2023-05-03T00:42:20.202Z,23.70
2023-05-03T00:44:47.947Z,23.70
2023-05-03T00:47:17.436Z,23.70
2023-05-03T00:49:45.550Z,23.70
2023-05-03T00:52:13.500Z,23.70
2023-05-03T00:54:41.607Z,23.70
2023-05-03T00:57:09.315Z,23.70
2023-05-03T00:59:39.112Z,23.70
2023-05-03T01:02:06.981Z,23.70
2023-05-03T01:04:34.756Z,23.70
2023-05-03T01:07:13.011Z,23.70
2023-05-03T01:09:47.526Z,23.70
2023-05-03T01:12:24.920Z,23.60
2023-05-03T01:15:16.846Z,23.70
2023-05-03T01:17:51.738Z,23.60
2023-05-03T01:20:24.645Z,23.60
2023-05-03T01:23:06.081Z,23.60
2023-05-03T01:25:35.780Z,23.60
2023-05-03T01:28:03.501Z,23.60
2023-05-03T01:30:32.447Z,23.60
2023-05-03T01:33:05.508Z,23.60
2023-05-03T01:35:41.864Z,23.60
2023-05-03T01:38:11.150Z,23.60
2023-05-03T01:40:45.891Z,23.60
2023-05-03T01:43:16.555Z,23.60
2023-05-03T01:45:45.069Z,23.60
2023-05-03T01:48:14.562Z,23.60
2023-05-03T01:50:42.496Z,23.60
2023-05-03T01:53:10.227Z,23.60
2023-05-03T01:55:37.947Z,23.60
2023-05-03T01:58:07.080Z,23.60
2023-05-03T02:00:34.902Z,23.60
2023-05-03T02:03:02.687Z,23.60
2023-05-03T02:05:30.749Z,23.60
2023-05-03T02:07:58.427Z,23.60
2023-05-03T02:10:26.307Z,23.60
2023-05-03T02:12:56.586Z,23.60
2023-05-03T02:15:25.859Z,23.60
2023-05-03T02:17:54.136Z,23.60
2023-05-03T02:20:22.065Z,23.60
2023-05-03T02:22:49.767Z,23.60
2023-05-03T02:25:17.496Z,23.60
2023-05-03T02:27:46.042Z,23.60
2023-05-03T02:30:14.416Z,23.60
2023-05-03T02:32:45.984Z,23.60
2023-05-03T02:35:14.040Z,23.60
2023-05-03T02:37:41.852Z,23.60
2023-05-03T02:40:13.217Z,23.60
2023-05-03T02:42:42.898Z,23.60
2023-05-03T02:45:11.577Z,23.60
2023-05-03T02:47:40.258Z,23.60
2023-05-03T02:50:09.635Z,23.60
2023-05-03T02:52:40.418Z,23.60
2023-05-03T02:55:08.830Z,23.60
2023-05-03T02:57:37.376Z,23.60
2023-05-03T03:00:07.761Z,23.60
2023-05-03T03:02:35.539Z,23.60
2023-05-03T03:05:03.394Z,23.60
2023-05-03T03:07:32.610Z,23.60
2023-05-03T03:10:00.793Z,23.60
2023-05-03T03:12:30.636Z,23.60
2023-05-03T03:15:00.488Z,23.60
2023-05-03T03:17:31.218Z,23.60
2023-05-03T03:19:59.431Z,23.60
2023-05-03T03:22:27.199Z,23.60
2023-05-03T03:24:56.266Z,23.60
2023-05-03T03:27:24.094Z,23.60
2023-05-03T03:29:51.787Z,23.60
2023-05-03T03:32:19.566Z,23.60
2023-05-03T03:34:47.315Z,23.50
2023-05-03T03:37:15.555Z,23.50
2023-05-03T03:39:43.670Z,23.50
2023-05-03T03:42:13.903Z,23.50
2023-05-03T03:44:41.676Z,23.50
2023-05-03T03:47:10.151Z,23.50
2023-05-03T03:49:38.089Z,23.50
2023-05-03T03:52:06.701Z,23.50
2023-05-03T03:54:37.682Z,23.50
2023-05-03T03:57:05.424Z,23.50
2023-05-03T03:59:35.768Z,23.50
2023-05-03T04:02:03.879Z,23.50
2023-05-03T04:04:32.277Z,23.50
2023-05-03T04:07:00.043Z,23.50
2023-05-03T04:09:28.995Z,23.50
2023-05-03T04:11:57.129Z,23.50
2023-05-03T04:14:25.645Z,23.50
2023-05-03T04:16:56.016Z,23.50
2023-05-03T04:19:25.193Z,23.50
2023-05-03T04:21:53.051Z,23.50
2023-05-03T04:24:22.015Z,23.50
2023-05-03T04:26:51.408Z,23.50
2023-05-03T04:29:26.206Z,23.50
2023-05-03T04:31:55.603Z,23.50
2023-05-03T04:34:24.826Z,23.50
2023-05-03T04:36:54.757Z,23.50
2023-05-03T04:39:23.288Z,23.50
2023-05-03T04:41:51.219Z,23.50
2023-05-03T04:44:19.365Z,23.50
2023-05-03T04:46:51.086Z,23.50
2023-05-03T04:49:20.719Z,23.50
2023-05-03T04:51:48.480Z,23.50
2023-05-03T04:54:17.084Z,23.50
2023-05-03T04:56:45.087Z,23.50
2023-05-03T04:59:17.618Z,23.50
2023-05-03T05:01:46.008Z,23.50
2023-05-03T05:04:14.531Z,23.50
2023-05-03T05:06:48.299Z,23.50
2023-05-03T05:09:25.540Z,23.50
2023-05-03T05:11:57.298Z,23.50
2023-05-03T05:14:28.477Z,23.50
2023-05-03T05:16:57.046Z,23.50
2023-05-03T05:19:24.825Z,23.50
2023-05-03T05:21:54.052Z,23.50
2023-05-03T05:24:23.737Z,23.50
2023-05-03T05:26:52.004Z,23.50
2023-05-03T05:29:19.811Z,23.50
2023-05-03T05:31:48.459Z,23.50
2023-05-03T05:34:16.914Z,23.50
2023-05-03T05:36:45.578Z,23.60
2023-05-03T05:39:15.375Z,23.60
2023-05-03T05:41:43.112Z,23.60
2023-05-03T05:44:13.081Z,23.60
2023-05-03T05:46:42.104Z,23.50
2023-05-03T05:49:10.484Z,23.50
2023-05-03T05:51:39.306Z,23.50
2023-05-03T05:54:07.624Z,23.50
2023-05-03T05:56:37.289Z,23.50
2023-05-03T05:59:05.964Z,23.40
2023-05-03T06:01:34.413Z,23.40
2023-05-03T06:04:02.243Z,23.40
2023-05-03T06:06:30.169Z,23.40
2023-05-03T06:08:58.094Z,23.40
2023-05-03T06:11:26.648Z,23.40
2023-05-03T06:13:56.350Z,23.40
2023-05-03T06:16:24.362Z,23.40
2023-05-03T06:18:52.108Z,23.40
2023-05-03T06:21:19.817Z,23.40
2023-05-03T06:23:47.620Z,23.40
2023-05-03T06:26:17.459Z,23.40
2023-05-03T06:28:47.107Z,23.40
2023-05-03T06:31:16.221Z,23.40
2023-05-03T06:33:44.311Z,23.40
2023-05-03T06:36:12.950Z,23.40
2023-05-03T06:38:40.773Z,23.40
2023-05-03T06:41:08.476Z,23.40
2023-05-03T06:43:36.297Z,23.40
2023-05-03T06:46:06.990Z,23.40
2023-05-03T06:48:36.177Z,23.40
2023-05-03T06:51:05.101Z,23.40
2023-05-03T06:53:32.827Z,23.40
2023-05-03T06:56:00.622Z,23.40
2023-05-03T06:58:28.324Z,23.40
2023-05-03T07:00:56.013Z,23.40
2023-05-03T07:03:24.586Z,23.40
2023-05-03T07:05:53.714Z,23.40
2023-05-03T07:08:21.444Z,23.40
2023-05-03T07:10:49.133Z,23.40
2023-05-03T07:13:16.965Z,23.40
2023-05-03T07:15:45.779Z,23.40
2023-05-03T07:18:13.607Z,23.40
2023-05-03T07:20:41.283Z,23.40
2023-05-03T07:23:10.298Z,23.50
2023-05-03T07:25:39.150Z,23.40
2023-05-03T07:28:06.877Z,23.40
2023-05-03T07:30:34.591Z,23.50
2023-05-03T07:33:02.376Z,23.50
2023-05-03T07:35:31.322Z,23.50
2023-05-03T07:37:59.177Z,23.50
2023-05-03T07:40:32.500Z,23.50
2023-05-03T07:43:00.275Z,23.50
2023-05-03T07:45:28.121Z,23.50
2023-05-03T07:47:56.564Z,23.50
2023-05-03T07:50:24.750Z,23.50
2023-05-03T07:52:52.556Z,23.50
2023-05-03T07:55:20.872Z,23.50
2023-05-03T07:57:50.907Z,23.50
2023-05-03T08:00:19.071Z,23.50
2023-05-03T08:02:46.914Z,23.50
2023-05-03T08:05:15.600Z,23.50
2023-05-03T08:07:44.298Z,23.50
2023-05-03T08:10:12.842Z,23.50
2023-05-03T08:12:40.569Z,23.50
2023-05-03T08:15:10.368Z,23.50
2023-05-03T08:17:41.845Z,23.50
2023-05-03T08:20:11.068Z,23.50
2023-05-03T08:22:40.204Z,23.50
2023-05-03T08:25:08.730Z,23.50
2023-05-03T08:27:37.372Z,23.50
2023-05-03T08:30:06.155Z,23.50
2023-05-03T08:32:35.571Z,23.50
2023-05-03T08:35:06.878Z,23.50
2023-05-03T08:37:39.794Z,23.50
2023-05-03T08:40:09.970Z,23.50
2023-05-03T08:42:40.617Z,23.60
2023-05-03T08:45:11.587Z,23.50
2023-05-03T08:47:41.715Z,23.60
2023-05-03T08:50:10.794Z,23.60
2023-05-03T08:52:39.989Z,23.60
2023-05-03T08:55:09.407Z,23.60
2023-05-03T08:57:37.393Z,23.60
2023-05-03T09:00:10.465Z,23.60
2023-05-03T09:02:40.236Z,23.60
2023-05-03T09:05:35.988Z,23.60
2023-05-03T09:08:05.503Z,23.60
2023-05-03T09:10:34.270Z,23.60
2023-05-03T09:13:03.278Z,23.60
2023-05-03T09:15:31.864Z,23.60
2023-05-03T09:18:17.185Z,23.60
2023-05-03T09:20:51.391Z,23.60
2023-05-03T09:23:21.087Z,23.60
2023-05-03T09:25:51.186Z,23.60
2023-05-03T09:28:20.508Z,23.60
2023-05-03T09:30:49.440Z,23.60
2023-05-03T09:33:29.403Z,23.60
2023-05-03T09:35:58.361Z,23.60
2023-05-03T09:38:30.889Z,23.60
2023-05-03T09:40:59.179Z,23.60
2023-05-03T09:43:26.898Z,23.70
2023-05-03T09:46:08.267Z,23.70
2023-05-03T09:48:38.007Z,23.70
2023-05-03T09:51:06.552Z,23.70
2023-05-03T09:53:34.961Z,23.70
2023-05-03T09:56:04.121Z,23.70
2023-05-03T09:58:34.868Z,23.70
2023-05-03T10:01:02.854Z,23.70
2023-05-03T10:03:35.954Z,23.70
2023-05-03T10:06:09.623Z,23.70
2023-05-03T10:08:41.717Z,23.70
2023-05-03T10:11:10.842Z,23.70
2023-05-03T10:13:38.608Z,23.80
2023-05-03T10:16:09.516Z,23.80
2023-05-03T10:18:44.731Z,23.80
2023-05-03T10:21:20.824Z,23.80
2023-05-03T10:24:21.703Z,23.80
2023-05-03T10:26:52.159Z,23.80
2023-05-03T10:30:02.359Z,23.80
2023-05-03T10:32:39.520Z,23.80
2023-05-03T10:35:10.215Z,23.80
2023-05-03T10:37:42.322Z,23.80
2023-05-03T10:40:13.429Z,23.80
2023-05-03T10:42:44.964Z,23.80
2023-05-03T10:45:23.150Z,23.80
2023-05-03T10:48:20.658Z,23.80
2023-05-03T10:50:50.028Z,23.80
2023-05-03T10:53:37.827Z,23.80
2023-05-03T10:56:08.076Z,23.80
2023-05-03T10:58:38.081Z,23.70
2023-05-03T11:01:07.902Z,23.70
2023-05-03T11:03:44.389Z,23.70
2023-05-03T11:06:27.410Z,23.70
2023-05-03T11:08:56.509Z,23.70
2023-05-03T11:11:24.217Z,23.70
2023-05-03T11:13:52.140Z,23.70
2023-05-03T11:16:20.142Z,23.70
2023-05-03T11:18:48.622Z,23.70
2023-05-03T11:21:16.898Z,23.70
2023-05-03T11:23:46.216Z,23.70
2023-05-03T11:26:15.992Z,23.70
2023-05-03T11:28:45.131Z,23.70
2023-05-03T11:31:13.480Z,23.70
2023-05-03T11:33:42.106Z,23.70
2023-05-03T11:36:10.073Z,23.70
2023-05-03T11:38:39.585Z,23.70
2023-05-03T11:41:16.129Z,23.70
2023-05-03T11:43:44.330Z,23.70
2023-05-03T11:46:14.151Z,23.70
2023-05-03T11:48:44.114Z,23.70
2023-05-03T11:51:13.782Z,23.70
2023-05-03T11:53:42.779Z,23.70
2023-05-03T11:56:13.865Z,23.70
2023-05-03T11:58:53.151Z,23.70
2023-05-03T12:01:22.523Z,23.70
2023-05-03T12:03:54.697Z,23.70
2023-05-03T12:06:24.066Z,23.70
2023-05-03T12:08:52.367Z,23.70
2023-05-03T12:11:21.831Z,23.70
2023-05-03T12:13:59.541Z,23.70
2023-05-03T12:16:28.004Z,23.70
2023-05-03T12:18:58.631Z,23.70
2023-05-03T12:21:54.846Z,23.70
2023-05-03T12:24:28.911Z,23.70
2023-05-03T12:26:57.679Z,23.70
2023-05-03T12:29:29.521Z,23.70
2023-05-03T12:32:02.785Z,23.70
2023-05-03T12:34:34.922Z,23.70
2023-05-03T12:37:05.668Z,23.70
2023-05-03T12:39:35.061Z,23.70
2023-05-03T12:42:08.872Z,23.70
2023-05-03T12:44:42.194Z,23.70
2023-05-03T12:47:10.531Z,23.70
2023-05-03T12:49:39.697Z,23.70
2023-05-03T12:54:41.988Z,23.70
2023-05-03T12:57:15.429Z,23.70
2023-05-03T12:59:52.190Z,23.70
2023-05-03T13:04:58.630Z,23.70
2023-05-03T13:07:30.101Z,23.70
2023-05-03T13:12:33.052Z,23.70
2023-05-03T13:15:06.287Z,23.70
2023-05-03T13:17:34.350Z,23.70
2023-05-03T13:20:02.443Z,23.70
2023-05-03T13:22:31.161Z,23.70
2023-05-03T13:24:59.023Z,23.70
2023-05-03T13:27:26.756Z,23.80
2023-05-03T13:29:54.459Z,23.80
2023-05-03T13:32:24.208Z,23.80
2023-05-03T13:34:52.112Z,23.80
2023-05-03T13:37:19.824Z,23.80
2023-05-03T13:39:48.396Z,23.80
2023-05-03T13:42:16.087Z,23.80
2023-05-03T13:44:45.688Z,23.80
2023-05-03T13:47:13.355Z,23.80
2023-05-03T13:49:42.497Z,23.80
2023-05-03T13:52:10.243Z,23.80
2023-05-03T13:54:37.971Z,23.90
2023-05-03T13:57:05.968Z,23.90
2023-05-03T13:59:33.675Z,23.90
2023-05-03T14:02:02.077Z,23.90
2023-05-03T14:04:30.701Z,24.00
2023-05-03T14:07:03.065Z,24.00
2023-05-03T14:09:31.489Z,24.00
2023-05-03T14:11:59.237Z,24.10
2023-05-03T14:14:28.221Z,24.10
2023-05-03T14:16:56.087Z,24.10
2023-05-03T14:19:23.967Z,24.10
2023-05-03T14:21:51.890Z,24.20
2023-05-03T14:24:21.360Z,24.20
2023-05-03T14:26:49.034Z,24.20
2023-05-03T14:29:16.795Z,24.20
2023-05-03T14:31:44.654Z,24.20
2023-05-03T14:34:12.859Z,24.20
2023-05-03T14:36:43.640Z,24.20
2023-05-03T14:39:14.332Z,24.30
2023-05-03T14:41:46.146Z,24.30
2023-05-03T14:44:14.039Z,24.30
2023-05-03T14:46:41.815Z,24.40
2023-05-03T14:49:09.598Z,24.40
2023-05-03T14:51:37.428Z,24.40
2023-05-03T14:54:05.284Z,24.40
2023-05-03T14:56:33.034Z,24.40
2023-05-03T14:59:02.541Z,24.40
2023-05-03T15:01:30.351Z,24.50
2023-05-03T15:03:58.148Z,24.50
2023-05-03T15:06:28.521Z,24.50
2023-05-03T15:08:56.758Z,24.50
2023-05-03T15:11:24.545Z,24.50
2023-05-03T15:13:52.658Z,24.50
2023-05-03T15:16:22.052Z,24.50
2023-05-03T15:18:49.753Z,24.50
2023-05-03T15:21:20.544Z,24.50
2023-05-03T15:23:49.308Z,24.50
2023-05-03T15:26:17.217Z,24.50
2023-05-03T15:28:44.928Z,24.50
2023-05-03T15:31:13.901Z,24.50
2023-05-03T15:33:44.532Z,24.50
2023-05-03T15:36:13.558Z,24.50
2023-05-03T15:38:41.862Z,24.60
2023-05-03T15:41:09.553Z,24.50
2023-05-03T15:43:37.316Z,24.60
2023-05-03T15:46:05.372Z,24.60
2023-05-03T15:48:33.055Z,24.60
2023-05-03T15:51:02.055Z,24.60
2023-05-03T15:53:29.845Z,24.60
2023-05-03T15:55:57.938Z,24.60
2023-05-03T15:58:26.355Z,24.70
2023-05-03T16:00:55.410Z,24.60
2023-05-03T16:03:23.207Z,24.70
2023-05-03T16:05:50.981Z,24.70
2023-05-03T16:08:20.661Z,24.70
2023-05-03T16:10:48.380Z,24.80
2023-05-03T16:13:16.303Z,24.70
2023-05-03T16:15:44.466Z,24.70
2023-05-03T16:18:12.517Z,24.80
2023-05-03T16:20:40.240Z,24.80
2023-05-03T16:23:07.954Z,24.80
2023-05-03T16:25:36.969Z,24.80
2023-05-03T16:28:04.795Z,24.80
2023-05-03T16:30:33.524Z,24.80
2023-05-03T16:33:02.270Z,24.80
2023-05-03T16:35:30.134Z,24.80
2023-05-03T16:37:57.931Z,24.80
2023-05-03T16:40:25.601Z,24.80
2023-05-03T16:42:55.683Z,24.80
2023-05-03T16:45:23.781Z,24.80
2023-05-03T16:47:51.823Z,24.80
2023-05-03T16:50:19.849Z,24.80
2023-05-03T16:52:47.568Z,24.80
2023-05-03T16:55:16.160Z,24.80
2023-05-03T16:57:43.843Z,24.80
2023-05-03T17:00:14.078Z,24.80
2023-05-03T17:02:42.022Z,24.80
2023-05-03T17:05:10.890Z,24.80
2023-05-03T17:07:40.814Z,24.90
2023-05-03T17:10:09.942Z,24.90
2023-05-03T17:12:37.780Z,24.90
2023-05-03T17:15:06.432Z,24.90
2023-05-03T17:17:35.482Z,24.90
2023-05-03T17:20:03.532Z,24.80
2023-05-03T17:22:31.390Z,24.80
2023-05-03T17:24:59.440Z,24.80
2023-05-03T17:27:27.118Z,24.80
2023-05-03T17:29:56.839Z,24.80
2023-05-03T17:32:24.719Z,24.80
2023-05-03T17:34:53.740Z,24.90
2023-05-03T17:37:23.116Z,24.80
2023-05-03T17:39:50.988Z,24.80
2023-05-03T17:42:18.910Z,24.80
2023-05-03T17:44:46.635Z,24.90
2023-05-03T17:47:15.193Z,24.80
2023-05-03T17:49:42.906Z,24.80
2023-05-03T17:52:11.966Z,24.80
2023-05-03T17:54:40.574Z,24.80
2023-05-03T17:57:08.496Z,24.80
2023-05-03T17:59:36.282Z,24.80
2023-05-03T18:02:04.031Z,24.80
2023-05-03T18:04:31.753Z,24.70
2023-05-03T18:06:59.441Z,24.80
2023-05-03T18:09:28.609Z,24.80
2023-05-03T18:11:59.489Z,24.70
2023-05-03T18:14:27.170Z,24.70
2023-05-03T18:16:56.039Z,24.70
2023-05-03T18:19:23.799Z,24.70
2023-05-03T18:21:51.511Z,24.70
2023-05-03T18:24:19.206Z,24.70
2023-05-03T18:26:48.232Z,24.70
2023-05-03T18:29:16.138Z,24.70
2023-05-03T18:31:43.908Z,24.70
2023-05-03T18:34:12.005Z,24.70
2023-05-03T18:36:39.917Z,24.70
2023-05-03T18:39:08.596Z,24.70
2023-05-03T18:41:37.179Z,24.60
2023-05-03T18:44:08.090Z,24.60
2023-05-03T18:46:37.562Z,24.60
2023-05-03T18:49:05.753Z,24.60
2023-05-03T18:51:33.488Z,24.60
2023-05-03T18:54:01.302Z,24.60
2023-05-03T18:56:31.209Z,24.60
2023-05-03T18:58:59.288Z,24.60
2023-05-03T19:01:28.416Z,24.50
2023-05-03T19:03:56.256Z,24.50
2023-05-03T19:06:24.092Z,24.50
2023-05-03T19:08:52.553Z,24.50
2023-05-03T19:11:20.277Z,24.50
2023-05-03T19:13:48.024Z,24.50
2023-05-03T19:16:16.514Z,24.50
2023-05-03T19:18:45.992Z,24.50
2023-05-03T19:21:16.978Z,24.50
2023-05-03T19:23:44.720Z,24.50
2023-05-03T19:26:12.442Z,24.50
2023-05-03T19:28:40.232Z,24.40
2023-05-03T19:31:07.984Z,24.40
2023-05-03T19:33:36.615Z,24.40
2023-05-03T19:36:07.077Z,24.40
2023-05-03T19:38:36.129Z,24.40
2023-05-03T19:41:07.673Z,24.40
2023-05-03T19:43:35.516Z,24.40
2023-05-03T19:46:03.816Z,24.40
2023-05-03T19:48:31.988Z,24.40
2023-05-03T19:50:59.767Z,24.40
2023-05-03T19:53:29.158Z,24.40
2023-05-03T19:55:58.123Z,24.40
2023-05-03T19:58:27.092Z,24.40
2023-05-03T20:00:55.332Z,24.40
2023-05-03T20:03:25.258Z,24.40
2023-05-03T20:05:53.019Z,24.40
2023-05-03T20:08:20.806Z,24.30
2023-05-03T20:10:49.856Z,24.30
2023-05-03T20:13:18.151Z,24.30
2023-05-03T20:15:45.982Z,24.30
2023-05-03T20:18:13.681Z,24.30
2023-05-03T20:20:41.380Z,24.30
2023-05-03T20:23:09.145Z,24.30
2023-05-03T20:25:36.843Z,24.20
2023-05-03T20:28:06.633Z,24.20
2023-05-03T20:30:34.774Z,24.20
2023-05-03T20:33:02.678Z,24.20
2023-05-03T20:35:30.444Z,24.20
2023-05-03T20:37:58.143Z,24.20
2023-05-03T20:40:26.078Z,24.20
2023-05-03T20:42:53.846Z,24.20
2023-05-03T20:45:22.964Z,24.20
2023-05-03T20:47:50.771Z,24.20
2023-05-03T20:50:18.681Z,24.20
2023-05-03T20:52:46.515Z,24.20
2023-05-03T20:55:14.213Z,24.20
2023-05-03T20:57:42.098Z,24.20
2023-05-03T21:00:12.244Z,24.20
2023-05-03T21:02:41.420Z,24.20
2023-05-03T21:05:10.532Z,24.20
2023-05-03T21:07:38.584Z,24.10
2023-05-03T21:10:07.799Z,24.10
2023-05-03T21:12:35.832Z,24.10
2023-05-03T21:15:03.584Z,24.10
2023-05-03T21:17:31.392Z,24.10
2023-05-03T21:20:00.451Z,24.10
2023-05-03T21:22:28.168Z,24.10
2023-05-03T21:24:55.898Z,24.10
2023-05-03T21:27:23.618Z,24.10
2023-05-03T21:29:51.359Z,24.10
2023-05-03T21:32:19.062Z,24.10
2023-05-03T21:34:46.811Z,24.10
2023-05-03T21:37:15.906Z,24.10
2023-05-03T21:39:54.220Z,24.10
2023-05-03T21:42:29.070Z,24.10
2023-05-03T21:44:56.808Z,24.10
2023-05-03T21:47:24.519Z,24.10
2023-05-03T21:49:52.288Z,24.10
2023-05-03T21:52:21.332Z,24.10
2023-05-03T21:54:49.041Z,24.10
2023-05-03T21:57:18.642Z,24.10
2023-05-03T21:59:46.617Z,24.10
2023-05-03T22:02:14.298Z,24.10
2023-05-03T22:04:42.032Z,24.00
2023-05-03T22:07:09.837Z,24.10
2023-05-03T22:09:38.862Z,24.00
2023-05-03T22:12:22.597Z,24.00
2023-05-03T22:14:51.618Z,24.00
2023-05-03T22:17:19.445Z,24.00
2023-05-03T22:19:47.132Z,24.00
2023-05-03T22:22:14.879Z,24.00
2023-05-03T22:24:43.880Z,24.00
2023-05-03T22:27:11.599Z,24.00
2023-05-03T22:29:39.309Z,24.00
2023-05-03T22:32:07.658Z,24.00
2023-05-03T22:34:35.384Z,24.00
2023-05-03T22:37:03.100Z,24.00
2023-05-03T22:39:30.952Z,24.00
2023-05-03T22:42:00.008Z,24.00
2023-05-03T22:44:27.820Z,24.00
2023-05-03T22:46:55.537Z,24.00
2023-05-03T22:49:23.250Z,24.00
2023-05-03T22:51:51.020Z,24.00
2023-05-03T22:54:20.029Z,24.00
2023-05-03T22:56:47.850Z,24.00
2023-05-03T22:59:16.864Z,24.00
2023-05-03T23:01:46.106Z,24.00
2023-05-03T23:04:13.962Z,24.00
2023-05-03T23:06:41.699Z,24.00
2023-05-03T23:09:10.134Z,24.00
2023-05-03T23:11:37.919Z,24.00
2023-05-03T23:14:05.866Z,24.00
2023-05-03T23:16:34.932Z,24.00
2023-05-03T23:19:03.623Z,24.00
2023-05-03T23:21:32.295Z,24.00
2023-05-03T23:24:00.088Z,24.00
2023-05-03T23:26:28.954Z,24.00
2023-05-03T23:28:57.106Z,24.00
2023-05-03T23:31:25.044Z,24.00
2023-05-03T23:33:54.536Z,24.00
2023-05-03T23:36:22.231Z,24.00
2023-05-03T23:38:51.085Z,24.00
2023-05-03T23:41:18.932Z,23.90
2023-05-03T23:43:47.091Z,23.90
2023-05-03T23:46:14.915Z,23.90
2023-05-03T23:48:42.754Z,23.90
2023-05-03T23:51:11.788Z,23.90
2023-05-03T23:53:39.479Z,23.90
2023-05-03T23:56:08.100Z,23.90
2023-05-03T23:58:36.143Z,23.90
